Time;durP1;ratioP1;P1;durP2;ratioP2;P2;SDS_P1;SDS_P2;PMS_P1;PMS_P2;Temp;Humidity;BMP_temperature;BMP_pressure;BME280_temperature;BME280_humidity;BME280_pressure;Samples;Min_cycle;Max_cycle;Signal;HPM_P1;HPM_P2
2022/02/07 00:01:18;;;;;;;9.07;6.97;;;;;;;2.42;65.46;99166.27;1751914;80;21111;-72
2022/02/07 00:07:34;;;;;;;7.20;6.50;;;;;;;2.48;65.24;99166.41;1806009;78;22239;-71
2022/02/07 00:10:03;;;;;;;7.47;6.03;;;;;;;2.47;65.08;99167.92;1778275;79;21061;-70
2022/02/07 00:12:31;;;;;;;9.67;6.60;;;;;;;2.47;65.19;99171.36;1738645;80;21070;-73
2022/02/07 00:14:57;;;;;;;14.47;9.03;;;;;;;2.47;65.04;99167.41;1714971;81;21037;-71
2022/02/07 00:17:25;;;;;;;14.83;8.83;;;;;;;2.44;65.06;99161.16;1726311;81;21557;-72
2022/02/07 00:19:53;;;;;;;15.20;11.00;;;;;;;2.42;65.14;99168.39;1732132;81;21523;-69
2022/02/07 00:22:19;;;;;;;14.33;10.30;;;;;;;2.42;64.99;99158.38;1728440;81;21038;-71
2022/02/07 00:24:45;;;;;;;12.75;9.98;;;;;;;2.40;65.11;99157.22;1723816;81;21138;-71
2022/02/07 00:27:11;;;;;;;13.10;9.25;;;;;;;2.44;65.06;99154.58;1728739;81;20994;-71
2022/02/07 00:29:37;;;;;;;12.88;9.10;;;;;;;2.43;65.07;99146.38;1728604;82;21081;-70
2022/02/07 00:32:06;;;;;;;11.30;9.53;;;;;;;2.43;65.04;99146.85;1728091;82;21350;-71
2022/02/07 00:34:34;;;;;;;13.07;10.63;;;;;;;2.45;65.11;99141.77;1703101;82;21126;-72
2022/02/07 00:37:00;;;;;;;14.87;10.57;;;;;;;2.49;65.03;99134.38;1705975;82;21092;-71
2022/02/07 00:39:35;;;;;;;13.68;9.93;;;;;;;2.48;65.10;99137.48;1708235;82;21014;-71
2022/02/07 00:42:03;;;;;;;10.97;8.00;;;;;;;2.53;65.07;99130.42;1704254;82;21061;-71
2022/02/07 00:44:27;;;;;;;10.57;8.93;;;;;;;2.54;65.03;99133.36;1711833;82;21030;-70
2022/02/07 00:47:05;;;;;;;9.63;8.33;;;;;;;2.58;64.91;99119.39;1728484;82;21022;-70
2022/02/07 00:49:28;;;;;;;8.77;7.53;;;;;;;2.60;64.93;99123.52;1723827;82;21085;-72
2022/02/07 00:51:55;;;;;;;8.73;7.53;;;;;;;2.62;64.85;99116.74;1727129;82;21113;-70
2022/02/07 00:54:21;;;;;;;8.20;6.42;;;;;;;2.59;64.88;99110.52;1725986;82;21533;-72
2022/02/07 00:56:48;;;;;;;;;;;;;;;2.59;64.96;99118.41;1707360;82;21555;-71
2022/02/07 00:59:14;;;;;;;9.27;6.93;;;;;;;2.54;65.16;99113.63;1712484;83;20449;-71
2022/02/07 01:01:40;;;;;;;8.63;7.72;;;;;;;2.48;65.26;99107.23;1690596;84;21084;-71
2022/02/07 01:04:07;;;;;;;;;;;;;;;2.46;65.37;99100.00;1685940;84;21256;-71
2022/02/07 01:06:35;;;;;;;8.17;6.80;;;;;;;2.47;65.32;99091.14;1676519;84;20159;-71
2022/02/07 01:49:41;;;;;;;8.65;7.00;;;;;;;2.45;65.35;98995.80;1723263;83;21034;-70
2022/02/07 01:54:43;;;;;;;7.00;5.50;;;;;;;2.48;65.05;98974.40;1710298;82;20994;-70
2022/02/07 01:57:11;;;;;;;6.90;5.50;;;;;;;2.48;65.07;98982.29;1714477;81;21581;-72
2022/02/07 01:59:40;;;;;;;7.57;5.80;;;;;;;2.50;65.23;98982.13;1694320;83;21038;-71
2022/02/07 02:02:07;;;;;;;8.37;6.07;;;;;;;2.50;65.04;98974.23;1695571;83;21089;-71
2022/02/07 02:04:34;;;;;;;6.83;5.63;;;;;;;2.50;65.15;98974.23;1715604;82;21057;-70
2022/02/07 02:07:03;;;;;;;8.03;5.67;;;;;;;2.47;65.06;98964.89;1708143;82;21133;-70
2022/02/07 02:09:30;;;;;;;5.60;5.00;;;;;;;2.49;65.26;98961.59;1715819;82;20998;-71
2022/02/07 02:11:59;;;;;;;6.20;5.60;;;;;;;2.49;65.28;98961.59;1717059;82;21166;-72
2022/02/07 02:14:44;;;;;;;8.67;6.17;;;;;;;2.48;65.28;98961.25;1710356;82;21074;-72
2022/02/07 02:38:40;;;;;;;6.57;5.97;;;;;;;2.45;65.58;98936.63;1715003;82;21057;-71
2022/02/07 02:46:27;;;;;;;7.33;5.93;;;;;;;2.44;65.67;98937.60;1596355;88;21605;-74
2022/02/07 02:48:59;;;;;;;7.27;5.73;;;;;;;2.39;65.84;98928.08;1666815;83;21027;-74
2022/02/07 02:51:20;;;;;;;6.47;5.87;;;;;;;2.38;65.87;98935.66;1721090;83;21046;-71
2022/02/07 02:53:46;;;;;;;6.45;5.85;;;;;;;2.39;65.99;98921.50;1722675;83;21525;-71
2022/02/07 02:56:13;;;;;;;7.50;5.73;;;;;;;2.36;66.06;98921.86;1691807;84;21066;-73
2022/02/07 02:58:41;;;;;;;8.30;6.13;;;;;;;2.33;66.18;98917.75;1682421;84;21041;-71
2022/02/07 03:01:09;;;;;;;6.60;5.90;;;;;;;2.31;66.21;98905.27;1690022;84;21063;-72
2022/02/07 03:03:42;;;;;;;8.27;7.23;;;;;;;2.32;66.36;98902.97;1701531;84;21026;-71
2022/02/07 03:06:08;;;;;;;8.78;7.70;;;;;;;2.30;66.40;98908.09;1683272;84;21139;-71
2022/02/07 03:08:35;;;;;;;8.80;7.00;;;;;;;2.31;66.41;98906.58;1713305;84;21579;-71
2022/02/07 03:18:40;;;;;;;8.40;7.20;;;;;;;2.31;66.82;98923.67;1746199;81;21498;-71
2022/02/07 03:21:07;;;;;;;8.00;6.72;;;;;;;2.32;66.92;98912.68;1731019;81;21031;-70
2022/02/07 03:23:34;;;;;;;8.87;7.60;;;;;;;2.34;66.93;98916.77;1749199;81;20988;-72
2022/02/07 03:26:00;;;;;;;7.22;6.53;;;;;;;2.36;67.10;98907.40;1741838;81;21104;-72
2022/02/07 03:28:29;;;;;;;7.50;6.10;;;;;;;2.37;67.13;98906.89;1748629;81;21065;-71
2022/02/07 03:30:56;;;;;;;7.33;6.60;;;;;;;2.40;67.22;98903.44;1738880;81;21514;-71
2022/02/07 03:33:23;;;;;;;9.30;7.12;;;;;;;2.39;67.40;98901.78;1744563;81;21520;-72
2022/02/07 03:35:50;;;;;;;8.33;6.23;;;;;;;2.41;67.33;98891.94;1747638;81;21026;-73
2022/02/07 03:38:18;;;;;;;8.87;7.30;;;;;;;2.43;67.48;98891.74;1735691;81;21098;-71
2022/02/07 03:40:44;;;;;;;7.33;6.62;;;;;;;2.45;67.54;98889.28;1745571;81;21034;-70
2022/02/07 03:43:11;;;;;;;9.10;6.65;;;;;;;2.45;67.59;98889.76;1735983;81;21509;-71
2022/02/07 03:45:38;;;;;;;7.40;6.65;;;;;;;2.47;67.68;98879.91;1731439;81;21053;-72
2022/02/07 03:48:06;;;;;;;7.80;7.03;;;;;;;2.45;67.75;98873.98;1739207;81;21041;-72
2022/02/07 03:50:35;;;;;;;10.53;6.90;;;;;;;2.48;67.85;98873.64;1748365;81;21095;-71
2022/02/07 03:53:03;;;;;;;11.23;7.20;;;;;;;2.48;67.85;98869.70;1749367;81;21052;-71
2022/02/07 03:55:32;;;;;;;8.03;7.03;;;;;;;2.50;67.81;98866.40;1743570;81;22198;-69
2022/02/07 03:58:00;;;;;;;8.83;7.17;;;;;;;2.51;67.89;98853.08;1734387;81;21070;-71
2022/02/07 04:00:27;;;;;;;7.03;6.17;;;;;;;2.55;67.88;98844.85;1750625;81;21077;-73
2022/02/07 04:02:57;;;;;;;8.73;6.73;;;;;;;2.49;67.97;98834.02;1748182;81;21018;-71
2022/02/07 04:05:45;;;;;;;11.77;7.00;;;;;;;2.48;67.76;98836.31;1736189;81;21072;-71
2022/02/07 04:08:08;;;;;;;8.50;7.37;;;;;;;2.48;67.73;98838.14;1701318;82;21077;-72
2022/02/07 04:10:42;;;;;;;8.33;7.47;;;;;;;2.53;67.62;98841.89;1746044;81;21517;-71
2022/02/07 04:13:06;;;;;;;10.80;6.97;;;;;;;2.50;67.68;98838.28;1747758;81;21088;-72
2022/02/07 04:15:33;;;;;;;10.80;7.80;;;;;;;2.53;67.49;98838.45;1752688;81;21045;-72
2022/02/07 04:18:04;;;;;;;12.13;7.87;;;;;;;2.50;67.50;98831.70;1676787;84;22135;-71
2022/02/07 04:20:28;;;;;;;7.83;7.03;;;;;;;2.50;67.33;98833.02;1735002;81;21025;-71
2022/02/07 04:22:55;;;;;;;8.90;7.60;;;;;;;2.53;67.31;98827.92;1687077;84;21093;-70
2022/02/07 04:25:35;;;;;;;7.40;6.70;;;;;;;2.53;67.12;98833.19;1735422;82;21147;-71
2022/02/07 04:28:18;;;;;;;10.13;7.33;;;;;;;2.51;67.10;98818.89;1746404;81;21018;-71
2022/02/07 04:30:44;;;;;;;9.08;7.12;;;;;;;2.52;67.03;98824.48;1686153;84;21030;-71
2022/02/07 04:33:12;;;;;;;8.97;7.70;;;;;;;2.53;67.04;98823.98;1744999;81;21003;-71
2022/02/07 04:35:38;;;;;;;8.93;7.08;;;;;;;2.54;66.90;98824.28;1751684;81;21025;-71
2022/02/07 04:38:05;;;;;;;8.85;6.17;;;;;;;2.52;66.41;98808.70;1734180;81;21495;-70
2022/02/07 04:40:32;;;;;;;9.23;7.07;;;;;;;2.58;66.46;98815.08;1744365;81;21066;-70
2022/02/07 04:42:59;;;;;;;7.08;6.25;;;;;;;2.57;66.21;98807.36;1724863;81;21010;-70
2022/02/07 04:51:09;;;;;;;9.37;7.37;;;;;;;2.58;65.69;98800.61;1721217;81;21538;-71
2022/02/07 04:58:42;;;;;;;10.50;7.27;;;;;;;2.55;65.09;98794.88;1707000;82;21014;-71
2022/02/07 05:03:35;;;;;;;8.43;6.83;;;;;;;2.51;64.91;98811.00;1711641;82;21117;-72
2022/02/07 05:14:13;;;;;;;6.83;6.13;;;;;;;2.42;65.09;98804.14;1731693;81;21111;-71
2022/02/07 05:16:41;;;;;;;;;;;;;;;2.40;65.47;98807.95;1725560;81;21073;-71
2022/02/07 05:19:18;;;;;;;8.98;6.72;;;;;;;2.38;65.87;98812.06;1665227;84;20187;-70
2022/02/07 05:21:46;;;;;;;7.57;6.33;;;;;;;2.31;66.39;98803.22;1725807;81;21019;-71
2022/02/07 05:24:31;;;;;;;9.93;6.10;;;;;;;2.30;66.99;98812.12;1729563;81;21137;-71
2022/02/07 05:27:11;;;;;;;8.17;6.93;;;;;;;2.31;67.41;98807.16;1726242;81;21519;-71
2022/02/07 05:29:42;;;;;;;7.10;6.40;;;;;;;2.29;68.04;98802.08;1661166;85;21119;-71
2022/02/07 05:32:23;;;;;;;8.40;6.37;;;;;;;2.28;68.43;98803.08;1727073;81;20995;-71
2022/02/07 05:34:59;;;;;;;9.13;7.20;;;;;;;2.22;69.05;98795.05;1714137;81;21015;-72
2022/02/07 05:37:33;;;;;;;11.07;8.43;;;;;;;2.23;69.25;98795.39;1723660;81;21576;-71
2022/02/07 05:40:18;;;;;;;9.23;7.17;;;;;;;2.22;70.34;98794.55;1721413;81;21062;-71
2022/02/07 05:42:45;;;;;;;8.80;6.77;;;;;;;2.19;71.64;98791.47;1726464;81;21479;-72
2022/02/07 05:45:16;;;;;;;10.70;7.80;;;;;;;2.13;72.46;98796.92;1721233;81;21057;-71
2022/02/07 05:47:51;;;;;;;11.50;7.73;;;;;;;2.12;73.55;98800.53;1714161;83;22082;-71
2022/02/07 05:50:23;;;;;;;7.73;6.77;;;;;;;2.16;73.74;98804.95;1708259;83;21562;-71
2022/02/07 05:52:51;;;;;;;12.20;8.60;;;;;;;2.10;74.42;98803.83;1715012;83;21054;-73
2022/02/07 05:55:22;;;;;;;8.87;6.87;;;;;;;2.01;75.33;98806.97;1721096;82;21030;-71
2022/02/07 05:57:50;;;;;;;8.17;7.10;;;;;;;1.98;75.73;98815.22;1679119;82;21030;-72
2022/02/07 06:00:36;;;;;;;10.43;7.10;;;;;;;2.02;76.10;98805.19;1603170;87;21161;-72
2022/02/07 06:03:05;;;;;;;11.53;7.03;;;;;;;2.05;77.14;98809.58;1624826;86;21036;-72
2022/02/07 06:05:37;;;;;;;8.90;7.27;;;;;;;2.07;77.10;98806.31;1689516;83;21055;-72
2022/02/07 06:08:05;;;;;;;9.27;6.90;;;;;;;2.05;77.80;98810.08;1682714;83;21199;-72
2022/02/07 06:10:32;;;;;;;8.40;6.43;;;;;;;2.01;78.16;98800.91;1684294;84;21025;-72
2022/02/07 06:12:59;;;;;;;8.28;7.28;;;;;;;2.05;78.34;98799.56;1676231;81;21521;-72
2022/02/07 06:15:29;;;;;;;7.33;6.40;;;;;;;2.16;78.87;98793.12;1681899;84;21093;-72
2022/02/07 06:17:59;;;;;;;7.33;6.57;;;;;;;2.21;79.07;98789.48;1677625;83;21128;-73
2022/02/07 06:20:26;;;;;;;10.47;8.00;;;;;;;2.12;79.98;98792.14;1681583;83;22506;-74
2022/02/07 06:22:53;;;;;;;8.60;7.30;;;;;;;2.03;80.34;98789.22;1677912;83;21601;-73
2022/02/07 06:25:19;;;;;;;9.95;7.30;;;;;;;2.04;80.72;98792.19;1680774;85;21331;-71
2022/02/07 06:27:47;;;;;;;7.77;6.63;;;;;;;2.13;80.99;98787.22;1681495;85;21076;-73
2022/02/07 06:30:15;;;;;;;10.73;7.87;;;;;;;2.20;81.36;98783.89;1687062;83;20982;-75
2022/02/07 06:32:43;;;;;;;9.73;7.67;;;;;;;2.22;81.63;98772.70;1679687;84;21025;-73
2022/02/07 06:35:10;;;;;;;8.28;7.08;;;;;;;2.23;81.63;98770.41;1690093;82;20972;-73
2022/02/07 06:37:39;;;;;;;9.07;7.60;;;;;;;2.23;82.06;98767.78;1707864;82;21548;-73
2022/02/07 06:40:09;;;;;;;12.63;7.07;;;;;;;2.28;82.19;98761.48;1700894;82;21529;-73
2022/02/07 06:42:37;;;;;;;9.70;8.43;;;;;;;2.32;82.34;98763.61;1699026;82;21475;-74
2022/02/07 06:45:04;;;;;;;8.10;7.00;;;;;;;2.37;82.32;98757.82;1698316;82;21608;-73
2022/02/07 06:47:32;;;;;;;9.17;7.67;;;;;;;2.40;82.10;98758.80;1678823;84;21052;-73
2022/02/07 06:49:59;;;;;;;11.20;7.17;;;;;;;2.38;82.38;98758.16;1692053;83;21016;-72
2022/02/07 06:52:26;;;;;;;11.73;8.23;;;;;;;2.40;82.45;98749.59;1694759;83;21386;-72
2022/02/07 06:54:53;;;;;;;12.53;8.00;;;;;;;2.42;82.33;98753.37;1666049;85;21553;-75
2022/02/07 06:57:22;;;;;;;10.80;7.47;;;;;;;2.50;82.01;98750.17;1688434;82;21054;-75
2022/02/07 06:59:49;;;;;;;11.40;8.10;;;;;;;2.56;81.89;98753.91;1690084;85;21000;-75
2022/02/07 07:02:20;;;;;;;10.93;8.23;;;;;;;2.58;81.74;98768.20;1684073;83;20992;-77
2022/02/07 07:04:49;;;;;;;10.93;8.07;;;;;;;2.53;81.62;98773.50;1682555;83;21167;-75
2022/02/07 07:07:17;;;;;;;12.00;8.03;;;;;;;2.57;81.52;98781.05;1650326;85;21591;-75
2022/02/07 07:09:46;;;;;;;11.60;8.37;;;;;;;2.62;81.34;98783.95;1693062;83;21064;-76
2022/02/07 07:12:15;;;;;;;8.83;7.27;;;;;;;2.65;81.27;98779.16;1687772;83;20983;-78
2022/02/07 07:15:04;;;;;;;9.83;7.53;;;;;;;2.64;81.05;98782.80;1689160;83;21000;-76
2022/02/07 07:17:19;;;;;;;9.33;7.83;;;;;;;2.61;81.23;98784.97;1694393;83;21473;-76
2022/02/07 07:19:47;;;;;;;12.40;7.83;;;;;;;2.58;81.53;98778.25;1704256;83;21012;-78
2022/02/07 07:22:14;;;;;;;11.10;7.95;;;;;;;2.59;81.61;98785.13;1695636;83;21663;-76
2022/02/07 07:24:42;;;;;;;10.97;8.97;;;;;;;2.64;81.49;98782.00;1658512;85;21055;-75
2022/02/07 07:27:12;;;;;;;11.90;8.93;;;;;;;2.68;81.50;98775.38;1671909;85;20998;-76
2022/02/07 07:29:41;;;;;;;15.43;9.17;;;;;;;2.65;81.53;98775.22;1668790;83;21043;-76
2022/02/07 07:32:08;;;;;;;14.40;8.43;;;;;;;2.60;81.76;98768.84;1698725;82;21046;-74
2022/02/07 07:34:36;;;;;;;12.23;8.70;;;;;;;2.60;81.61;98760.48;1668654;84;21030;-76
2022/02/07 07:37:09;;;;;;;9.50;8.17;;;;;;;2.62;82.00;98761.13;1703066;84;21518;-71
2022/02/07 07:39:36;;;;;;;13.07;8.60;;;;;;;2.67;81.92;98761.39;1701562;84;21070;-71
2022/02/07 07:42:05;;;;;;;10.27;8.23;;;;;;;2.71;81.95;98765.33;1702216;84;21628;-72
2022/02/07 07:44:48;;;;;;;11.93;9.50;;;;;;;2.67;81.89;98757.44;1677186;84;20984;-70
2022/02/07 07:47:30;;;;;;;12.63;9.27;;;;;;;2.61;82.20;98759.97;1647434;84;21034;-76
2022/02/07 07:50:09;;;;;;;14.23;9.37;;;;;;;2.67;82.18;98760.58;1703323;82;21122;-74
2022/02/07 08:01:19;;;;;;;12.53;10.80;;;;;;;2.66;81.93;98755.02;1664619;84;21078;-67
2022/02/07 08:03:28;;;;;;;14.00;10.77;;;;;;;2.57;82.25;98741.59;1692096;83;21017;-68
2022/02/07 08:06:11;;;;;;;10.87;9.80;;;;;;;2.64;82.07;98754.38;1691258;83;21513;-67
2022/02/07 08:08:59;;;;;;;13.83;10.27;;;;;;;2.70;81.75;98746.58;1691999;82;21203;-65
2022/02/07 08:11:14;;;;;;;;;;;;;;;2.70;81.52;98753.16;1692893;82;21017;-65
2022/02/07 08:13:47;;;;;;;12.97;9.73;;;;;;;2.68;81.59;98753.83;1685139;83;20144;-65
2022/02/07 08:16:19;;;;;;;12.90;10.63;;;;;;;2.66;81.26;98758.96;1685501;83;21191;-64
2022/02/07 08:18:45;;;;;;;;;;;;;;;2.73;80.91;98756.76;1686472;83;21084;-64
2022/02/07 08:21:11;;;;;;;14.80;9.37;;;;;;;2.75;80.22;98751.80;1684862;83;20203;-64
2022/02/07 08:23:39;;;;;;;12.30;10.08;;;;;;;2.69;80.61;98754.64;1700636;83;21049;-63
2022/02/07 08:26:07;;;;;;;17.23;10.83;;;;;;;2.66;80.76;98744.48;1690360;83;21050;-65
2022/02/07 08:28:34;;;;;;;11.63;8.77;;;;;;;2.70;80.51;98742.63;1688518;83;21056;-64
2022/02/07 08:31:00;;;;;;;17.62;9.85;;;;;;;2.82;79.85;98752.23;1690574;83;21026;-64
2022/02/07 08:33:26;;;;;;;14.73;8.78;;;;;;;2.85;79.64;98743.99;1676027;83;21096;-66
2022/02/07 08:35:52;;;;;;;12.47;8.90;;;;;;;2.82;79.69;98748.28;1692225;83;21061;-65
2022/02/07 08:38:19;;;;;;;11.22;8.43;;;;;;;2.73;79.95;98748.03;1692180;83;21069;-65
2022/02/07 08:40:47;;;;;;;12.07;8.53;;;;;;;2.66;80.57;98744.48;1704299;83;20991;-64
2022/02/07 08:43:14;;;;;;;9.97;8.50;;;;;;;2.66;80.63;98736.09;1700352;83;21437;-66
2022/02/07 08:45:40;;;;;;;10.33;8.30;;;;;;;2.32;80.49;98665.02;1710943;82;21023;-63
2022/02/07 08:48:09;;;;;;;10.67;7.97;;;;;;;2.79;80.35;98744.70;1709602;82;21018;-64
2022/02/07 08:50:37;;;;;;;12.63;8.90;;;;;;;2.82;80.38;98739.58;1715621;82;21089;-64
2022/02/07 08:53:05;;;;;;;11.97;8.43;;;;;;;2.77;80.10;98729.59;1728658;82;21503;-65
2022/02/07 08:55:37;;;;;;;10.80;8.93;;;;;;;2.79;80.27;98731.55;1717786;82;21130;-66
2022/02/07 08:58:09;;;;;;;15.00;9.40;;;;;;;2.86;80.30;98731.17;1708739;82;21034;-66
2022/02/07 09:03:22;;;;;;;11.13;8.23;;;;;;;3.00;79.32;98723.48;1688880;85;21687;-64
2022/02/07 09:05:45;;;;;;;10.60;8.60;;;;;;;2.91;78.55;98725.36;1687805;84;21147;-66
2022/02/07 09:10:45;;;;;;;11.27;8.10;;;;;;;2.76;78.43;98718.74;1691704;84;21007;-66
2022/02/07 09:13:11;;;;;;;12.60;8.47;;;;;;;2.84;78.83;98721.80;1692551;83;21229;-64
2022/02/07 09:18:11;;;;;;;12.97;9.27;;;;;;;2.87;78.49;98729.34;1690479;83;21029;-67
2022/02/07 09:20:44;;;;;;;10.87;8.20;;;;;;;2.87;78.52;98724.89;1691043;83;21141;-67
2022/02/07 09:23:10;;;;;;;8.90;7.37;;;;;;;2.86;78.44;98721.95;1687748;83;21040;-65
2022/02/07 09:25:36;;;;;;;11.17;7.10;;;;;;;2.86;78.08;98727.70;1690556;83;21053;-64
2022/02/07 09:28:03;;;;;;;12.15;8.43;;;;;;;2.92;77.89;98719.11;1692375;83;21018;-68
2022/02/07 09:30:31;;;;;;;11.20;7.50;;;;;;;2.98;77.41;98721.02;1693979;83;21576;-67
2022/02/07 09:32:57;;;;;;;;;;;;;;;2.97;77.20;98721.19;1693605;83;21030;-67
2022/02/07 09:35:23;;;;;;;11.23;7.17;;;;;;;2.97;77.02;98718.56;1690002;83;20680;-66
2022/02/07 09:37:53;;;;;;;10.73;7.13;;;;;;;2.90;77.18;98720.59;1692538;83;21049;-66
2022/02/07 09:40:21;;;;;;;9.90;8.07;;;;;;;2.96;77.13;98709.86;1693454;83;21018;-66
2022/02/07 09:42:55;;;;;;;11.40;7.20;;;;;;;3.06;76.77;98706.45;1696064;83;21086;-67
2022/02/07 09:45:29;;;;;;;9.40;7.00;;;;;;;3.14;76.60;98702.92;1686240;83;21039;-65
2022/02/07 09:47:47;;;;;;;9.80;8.27;;;;;;;3.17;75.72;98705.20;1683959;83;21024;-66
2022/02/07 09:50:13;;;;;;;9.90;8.00;;;;;;;3.14;75.93;98702.11;1691841;83;21076;-65
2022/02/07 09:52:40;;;;;;;10.38;8.10;;;;;;;3.08;76.19;98700.51;1691285;83;22089;-64
2022/02/07 09:55:08;;;;;;;14.75;8.40;;;;;;;3.13;76.23;98705.25;1692046;83;21532;-63
2022/02/07 09:57:35;;;;;;;14.53;8.50;;;;;;;3.20;75.93;98703.53;1686981;83;21251;-65
2022/02/07 10:00:06;;;;;;;12.67;8.87;;;;;;;3.29;75.96;98706.37;1687211;83;21501;-64
2022/02/07 10:02:48;;;;;;;13.20;9.13;;;;;;;3.39;75.56;98700.02;1658668;83;20997;-67
2022/02/07 10:05:22;;;;;;;11.40;9.03;;;;;;;3.40;74.71;98702.98;1681754;83;21076;-64
2022/02/07 10:08:08;;;;;;;10.93;7.93;;;;;;;3.42;74.48;98710.20;1692751;83;21637;-66
2022/02/07 10:10:44;;;;;;;11.70;9.43;;;;;;;3.37;74.16;98698.91;1693863;83;21480;-69
2022/02/07 10:13:20;;;;;;;13.20;7.93;;;;;;;3.40;73.47;98713.52;1689627;83;21004;-65
2022/02/07 10:21:25;;;;;;;14.23;8.63;;;;;;;3.54;72.64;98723.21;1689903;83;21535;-63
2022/02/07 10:35:26;;;;;;;11.73;8.70;;;;;;;3.45;72.17;98729.09;1712211;82;21031;-65
2022/02/07 10:48:41;;;;;;;14.90;9.47;;;;;;;3.59;72.06;98727.45;1727084;82;21648;-75
2022/02/07 10:51:22;;;;;;;13.43;10.00;;;;;;;3.56;71.88;98734.41;1693460;83;21565;-73
2022/02/07 10:54:08;;;;;;;11.00;8.40;;;;;;;3.53;71.60;98729.50;1673314;84;21113;-76
2022/02/07 10:56:42;;;;;;;12.57;8.90;;;;;;;3.53;71.74;98730.81;1688039;82;21583;-75
2022/02/07 10:59:10;;;;;;;11.43;8.43;;;;;;;3.53;71.06;98736.09;1691913;83;21093;-73
2022/02/07 11:04:37;;;;;;;9.63;7.57;;;;;;;3.22;70.55;98667.30;1692907;83;20969;-74
2022/02/07 11:07:01;;;;;;;10.10;7.63;;;;;;;3.59;70.67;98726.63;1689656;83;21588;-73
2022/02/07 11:09:37;;;;;;;14.60;9.03;;;;;;;3.55;70.42;98724.86;1689186;83;21135;-76
2022/02/07 11:12:18;;;;;;;9.93;7.97;;;;;;;3.52;70.52;98712.05;1700749;83;21010;-74
2022/02/07 11:14:50;;;;;;;11.23;8.53;;;;;;;3.49;70.62;98713.23;1694161;83;21498;-74
2022/02/07 11:17:32;;;;;;;9.60;8.00;;;;;;;3.57;70.54;98707.05;1702051;83;21055;-75
2022/02/07 11:25:41;;;;;;;12.33;9.80;;;;;;;3.55;69.96;98694.56;1684136;83;21034;-75
2022/02/07 11:27:59;;;;;;;18.67;9.73;;;;;;;3.53;70.13;98686.54;1689786;83;21113;-74
2022/02/07 11:30:50;;;;;;;14.10;9.23;;;;;;;3.52;70.16;98679.11;1693233;83;21104;-74
2022/02/07 11:33:34;;;;;;;12.60;9.03;;;;;;;3.59;70.17;98676.06;1685077;83;21007;-74
2022/02/07 11:36:03;;;;;;;12.00;8.50;;;;;;;3.69;69.79;98676.61;1672047;83;21020;-73
2022/02/07 11:38:30;;;;;;;12.73;9.30;;;;;;;3.74;69.83;98664.70;1699618;83;21022;-74
2022/02/07 11:41:05;;;;;;;11.27;9.77;;;;;;;3.70;69.48;98643.16;1687209;83;21153;-75
2022/02/07 11:43:37;;;;;;;14.23;9.17;;;;;;;3.73;69.60;98647.23;1690965;83;21575;-74
2022/02/07 11:46:09;;;;;;;13.40;10.30;;;;;;;3.70;69.39;98643.97;1709258;82;20974;-74
2022/02/07 11:48:51;;;;;;;11.93;8.77;;;;;;;3.66;69.49;98636.64;1698934;82;21042;-75
2022/02/07 11:51:28;;;;;;;13.20;9.10;;;;;;;3.64;69.65;98638.64;1712942;82;20990;-74
2022/02/07 11:54:03;;;;;;;11.33;9.93;;;;;;;3.63;69.68;98637.80;1712031;82;21053;-73
2022/02/07 11:59:28;;;;;;;10.93;8.80;;;;;;;3.67;70.04;98625.92;1721253;82;20996;-71
2022/02/07 12:02:17;;;;;;;10.00;8.67;;;;;;;3.62;70.37;98626.97;1702351;83;21537;-71
2022/02/07 12:04:46;;;;;;;10.73;9.63;;;;;;;3.58;70.43;98623.08;1691100;83;21026;-71
2022/02/07 12:07:31;;;;;;;11.73;9.30;;;;;;;3.53;70.52;98629.39;1688407;83;21073;-69
2022/02/07 12:10:13;;;;;;;11.80;10.17;;;;;;;3.44;71.22;98638.39;1688015;83;21061;-72
2022/02/07 12:12:44;;;;;;;11.40;8.93;;;;;;;3.41;71.43;98634.33;1698703;84;21499;-72
2022/02/07 12:15:32;;;;;;;13.07;9.90;;;;;;;3.48;71.44;98640.97;1709071;83;21542;-74
2022/02/07 12:17:57;;;;;;;15.13;11.60;;;;;;;3.46;71.54;98664.05;1700936;84;21046;-70
2022/02/07 12:23:38;;;;;;;13.90;10.97;;;;;;;3.45;72.29;98692.22;1768538;78;22880;-74
2022/02/07 12:26:10;;;;;;;20.60;10.18;;;;;;;3.51;72.18;98700.70;1730688;82;21000;-76
2022/02/07 12:34:01;;;;;;;11.47;10.27;;;;;;;3.92;71.74;98709.92;1655408;84;21053;-68
2022/02/07 12:36:32;;;;;;;21.20;12.30;;;;;;;3.97;71.37;98702.77;1653363;85;21561;-72
2022/02/07 12:39:01;;;;;;;16.07;11.83;;;;;;;3.90;71.23;98693.48;1673156;84;21096;-70
2022/02/07 12:41:29;;;;;;;13.07;11.30;;;;;;;3.82;71.32;98680.39;1668929;84;21061;-73
2022/02/07 12:43:57;;;;;;;12.63;10.03;;;;;;;3.76;71.56;98694.31;1641819;84;21124;-70
2022/02/07 12:46:27;;;;;;;13.30;11.20;;;;;;;3.75;71.86;98700.09;1686177;84;21038;-69
2022/02/07 12:48:58;;;;;;;14.80;12.47;;;;;;;3.77;71.94;98695.45;1696430;83;21624;-74
2022/02/07 12:51:32;;;;;;;17.77;11.97;;;;;;;3.74;71.95;98701.59;1691349;84;21099;-70
2022/02/07 12:54:00;;;;;;;15.80;12.40;;;;;;;3.66;72.43;98703.32;1687498;83;21547;-68
2022/02/07 12:56:29;;;;;;;16.07;12.17;;;;;;;3.64;72.60;98707.15;1628373;85;20982;-69
2022/02/07 12:58:55;;;;;;;18.03;12.47;;;;;;;3.63;72.78;98702.36;1612490;86;21017;-71
2022/02/07 13:01:34;;;;;;;16.47;12.07;;;;;;;3.66;72.93;98692.78;1616959;87;21125;-73
2022/02/07 13:04:07;;;;;;;14.47;11.97;;;;;;;3.70;72.89;98708.53;1637921;86;21041;-71
2022/02/07 13:06:39;;;;;;;15.90;11.50;;;;;;;3.72;72.80;98710.19;1627181;86;21066;-73
2022/02/07 13:09:42;;;;;;;14.27;10.97;;;;;;;3.69;73.03;98717.45;1627499;86;21065;-83
2022/02/07 13:12:14;;;;;;;17.00;11.63;;;;;;;3.70;73.17;98724.34;1632485;87;21413;-73
2022/02/07 13:14:42;;;;;;;12.37;9.93;;;;;;;3.73;73.18;98724.50;1628204;86;21041;-75
2022/02/07 13:17:10;;;;;;;12.43;9.93;;;;;;;3.76;73.16;98723.30;1635374;86;21102;-76
2022/02/07 13:19:42;;;;;;;15.10;10.43;;;;;;;3.85;73.00;98731.43;1643031;86;21884;-70
2022/02/07 13:22:10;;;;;;;12.97;10.33;;;;;;;3.91;72.82;98734.63;1627914;85;21037;-78
2022/02/07 13:24:39;;;;;;;13.67;11.40;;;;;;;3.92;72.75;98731.02;1662454;84;20977;-81
2022/02/07 13:27:13;;;;;;;15.23;10.70;;;;;;;3.92;72.81;98737.60;1668739;84;20983;-75
2022/02/07 13:29:45;;;;;;;14.47;10.73;;;;;;;3.91;72.85;98741.23;1675041;84;21005;-71
2022/02/07 13:32:16;;;;;;;14.87;10.77;;;;;;;3.90;72.93;98758.06;1662631;84;21108;-73
2022/02/07 13:34:45;;;;;;;14.83;10.50;;;;;;;3.88;73.02;98756.92;1603840;87;21570;-72
2022/02/07 13:37:24;;;;;;;13.13;10.63;;;;;;;3.91;72.89;98761.00;1624940;86;21134;-80
2022/02/07 13:39:57;;;;;;;16.00;10.33;;;;;;;3.99;72.71;98752.97;1614178;86;21105;-73
2022/02/07 13:42:37;;;;;;;13.47;10.70;;;;;;;4.07;72.58;98741.53;1615012;86;21082;-74
2022/02/07 13:45:14;;;;;;;10.57;9.20;;;;;;;4.13;72.44;98744.73;1641605;84;20998;-73
2022/02/07 13:47:45;;;;;;;15.30;10.65;;;;;;;4.12;72.18;98736.50;1663269;84;21064;-72
2022/02/07 13:50:16;;;;;;;13.83;10.77;;;;;;;4.15;72.17;98734.01;1627285;86;21096;-85
2022/02/07 13:52:46;;;;;;;14.03;11.37;;;;;;;4.15;72.16;98732.18;1621983;86;21056;-73
2022/02/07 13:55:21;;;;;;;17.80;13.50;;;;;;;4.17;72.08;98735.95;1629057;86;21053;-73
2022/02/07 13:57:55;;;;;;;13.13;11.73;;;;;;;4.15;71.98;98742.73;1653232;85;21077;-72
2022/02/07 14:00:25;;;;;;;17.40;11.10;;;;;;;4.18;71.95;98733.62;1645520;85;21061;-73
2022/02/07 14:03:15;;;;;;;14.90;10.57;;;;;;;4.24;71.68;98735.02;1655308;85;21502;-72
2022/02/07 14:05:47;;;;;;;16.60;11.23;;;;;;;4.24;71.59;98735.53;1673891;85;21578;-71
2022/02/07 14:08:15;;;;;;;15.40;10.03;;;;;;;4.20;71.66;98739.52;1664347;85;21580;-71
2022/02/07 14:10:44;;;;;;;12.70;9.33;;;;;;;4.18;71.75;98734.94;1663538;85;21108;-73
2022/02/07 14:13:15;;;;;;;14.27;11.13;;;;;;;4.17;71.81;98733.31;1673259;83;21053;-72
2022/02/07 14:15:44;;;;;;;15.10;12.07;;;;;;;4.19;71.76;98737.90;1688642;83;21093;-72
2022/02/07 14:18:14;;;;;;;17.87;12.00;;;;;;;4.18;71.82;98743.69;1688344;83;21149;-72
2022/02/07 14:20:40;;;;;;;13.23;10.63;;;;;;;4.22;71.68;98742.30;1696378;83;21010;-81
2022/02/07 14:23:10;;;;;;;18.60;11.97;;;;;;;4.29;71.43;98730.48;1690739;82;21180;-72
2022/02/07 14:25:39;;;;;;;19.47;13.73;;;;;;;4.31;71.26;98736.39;1692216;83;20994;-73
2022/02/07 14:28:06;;;;;;;16.67;12.90;;;;;;;4.30;71.31;98737.41;1656545;84;21018;-74
2022/02/07 14:30:34;;;;;;;16.50;12.70;;;;;;;4.28;71.45;98743.37;1675376;83;21037;-74
2022/02/07 14:33:03;;;;;;;17.03;12.93;;;;;;;4.26;71.47;98749.34;1693814;83;21002;-71
2022/02/07 14:35:29;;;;;;;20.43;14.27;;;;;;;4.23;71.43;98751.83;1696010;83;21006;-73
2022/02/07 14:37:56;;;;;;;;;;;;;;;4.20;71.52;98752.70;1680832;83;21593;-74